createdAt,value
2023-05-02T00:02:16.635Z,100245.34
2023-05-02T00:04:43.503Z,100245.34
2023-05-02T00:07:11.281Z,100241.19
2023-05-02T00:09:38.255Z,100235.84
2023-05-02T00:12:04.878Z,100223.56
2023-05-02T00:14:39.110Z,100219.00
2023-05-02T00:17:05.711Z,100206.19
2023-05-02T00:19:32.324Z,100207.28
2023-05-02T00:21:58.884Z,100200.97
2023-05-02T00:24:26.885Z,100196.78
2023-05-02T00:26:53.474Z,100196.88
2023-05-02T00:29:19.964Z,100191.91
2023-05-02T00:31:46.572Z,100189.72
2023-05-02T00:34:13.062Z,100176.00
2023-05-02T00:36:39.811Z,100173.47
2023-05-02T00:39:06.384Z,100175.31
2023-05-02T00:41:32.902Z,100169.91
2023-05-02T00:43:59.596Z,100167.13
2023-05-02T00:46:26.358Z,100155.84
2023-05-02T00:48:53.154Z,100147.22
2023-05-02T00:51:19.777Z,100142.84
2023-05-02T00:53:46.473Z,100142.25
2023-05-02T00:56:12.972Z,100124.38
2023-05-02T00:58:41.389Z,100119.53
2023-05-02T01:01:38.119Z,100110.59
2023-05-02T01:04:19.687Z,100125.16
2023-05-02T01:07:14.706Z,100124.25
2023-05-02T01:09:53.882Z,100119.91
2023-05-02T01:12:41.744Z,100120.09
2023-05-02T01:15:12.391Z,100120.94
2023-05-02T01:17:40.321Z,100126.88
2023-05-02T01:20:12.232Z,100117.88
2023-05-02T01:22:41.427Z,100101.38
2023-05-02T01:25:17.020Z,100108.28
2023-05-02T01:28:08.465Z,100101.47
2023-05-02T01:30:37.800Z,100090.97
2023-05-02T01:33:06.202Z,100094.47
2023-05-02T01:35:35.220Z,100076.75
2023-05-02T01:38:03.470Z,100073.06
2023-05-02T01:40:30.637Z,100042.97
2023-05-02T01:42:59.087Z,100041.97
2023-05-02T01:45:26.439Z,100022.53
2023-05-02T01:47:54.832Z,100026.25
2023-05-02T01:50:25.189Z,100024.97
2023-05-02T01:52:54.092Z,100021.47
2023-05-02T01:55:21.445Z,100025.38
2023-05-02T01:57:50.738Z,100050.44
2023-05-02T02:00:18.769Z,100038.22
2023-05-02T02:02:47.683Z,100044.94
2023-05-02T02:05:15.255Z,100044.00
2023-05-02T02:07:43.655Z,100038.06
2023-05-02T02:10:10.417Z,100046.06
2023-05-02T02:12:43.920Z,100059.16
2023-05-02T02:15:19.675Z,100067.88
2023-05-02T02:17:50.485Z,100068.75
2023-05-02T02:20:18.828Z,100074.53
2023-05-02T02:22:46.557Z,100060.06
2023-05-02T02:25:16.132Z,100047.50
2023-05-02T02:27:43.744Z,100042.97
2023-05-02T02:30:11.148Z,100048.03
2023-05-02T02:32:37.888Z,100035.00
2023-05-02T02:35:05.463Z,100020.97
2023-05-02T02:37:59.472Z,100018.41
2023-05-02T02:40:34.644Z,100007.56
2023-05-02T02:43:04.389Z,100022.28
2023-05-02T02:45:40.268Z,100021.31
2023-05-02T02:48:09.682Z,100028.28
2023-05-02T02:51:00.917Z,100018.72
2023-05-02T02:53:45.847Z,100012.41
2023-05-02T02:56:17.058Z,100011.53
2023-05-02T02:58:51.171Z,100001.78
2023-05-02T03:01:20.491Z,99990.06
2023-05-02T03:03:49.143Z,99996.41
2023-05-02T03:06:18.960Z,100008.13
2023-05-02T03:08:46.319Z,100007.25
2023-05-02T03:11:12.917Z,99998.41
2023-05-02T03:13:39.493Z,99997.84
2023-05-02T03:16:32.270Z,99981.25
2023-05-02T03:18:59.146Z,99981.22
2023-05-02T03:21:25.819Z,99983.13
2023-05-02T03:23:52.660Z,99983.97
2023-05-02T03:26:19.329Z,99988.50
2023-05-02T03:28:48.882Z,99990.00
2023-05-02T03:31:15.618Z,99973.63
2023-05-02T03:33:42.109Z,99979.59
2023-05-02T03:36:08.783Z,99983.38
2023-05-02T03:38:35.485Z,99985.66
2023-05-02T03:41:03.090Z,99980.66
2023-05-02T03:43:30.474Z,99992.84
2023-05-02T03:45:57.024Z,99997.31
2023-05-02T03:48:23.932Z,100005.28
2023-05-02T03:50:51.011Z,99996.69
2023-05-02T03:53:17.526Z,99959.13
2023-05-02T03:55:44.021Z,99953.09
2023-05-02T03:58:11.244Z,99938.66
2023-05-02T04:00:38.618Z,99947.69
2023-05-02T04:03:05.278Z,99951.63
2023-05-02T04:05:31.997Z,99938.13
2023-05-02T04:07:58.689Z,99945.44
2023-05-02T04:10:25.532Z,99945.88
2023-05-02T04:12:52.008Z,99941.50
2023-05-02T04:15:18.507Z,99940.28
2023-05-02T04:17:45.145Z,99929.84
2023-05-02T04:20:11.927Z,99946.69
2023-05-02T04:22:41.456Z,99958.75
2023-05-02T04:25:08.403Z,99959.69
2023-05-02T04:27:34.960Z,99968.38
2023-05-02T04:30:01.783Z,99977.03
2023-05-02T04:32:28.616Z,99986.28
2023-05-02T04:34:55.957Z,99997.44
2023-05-02T04:37:23.133Z,100007.00
2023-05-02T04:39:50.061Z,100005.16
2023-05-02T04:42:16.589Z,100007.88
2023-05-02T04:44:43.093Z,100019.91
2023-05-02T04:47:09.679Z,100023.16
2023-05-02T04:49:36.283Z,100033.28
2023-05-02T04:52:03.081Z,100017.94
2023-05-02T04:54:29.698Z,100026.34
2023-05-02T04:56:56.875Z,100032.47
2023-05-02T04:59:24.204Z,100045.50
2023-05-02T05:01:50.808Z,100052.09
2023-05-02T05:04:17.541Z,100058.88
2023-05-02T05:06:44.145Z,100064.28
2023-05-02T05:09:10.774Z,100072.78
2023-05-02T05:11:38.651Z,100083.00
2023-05-02T05:14:05.417Z,100072.59
2023-05-02T05:16:32.163Z,100078.69
2023-05-02T05:18:58.692Z,100084.50
2023-05-02T05:21:25.587Z,100086.25
2023-05-02T05:23:52.131Z,100066.66
2023-05-02T05:26:18.668Z,100053.13
2023-05-02T05:28:45.366Z,100047.50
2023-05-02T05:31:15.966Z,100054.41
2023-05-02T05:33:43.862Z,100052.81
2023-05-02T05:36:12.485Z,100054.53
2023-05-02T05:38:39.186Z,100062.47
2023-05-02T05:41:07.912Z,100073.59
2023-05-02T05:43:36.570Z,100080.41
2023-05-02T05:46:04.586Z,100080.59
2023-05-02T05:48:31.432Z,100081.56
2023-05-02T05:50:57.940Z,100093.66
2023-05-02T05:53:24.523Z,100098.03
2023-05-02T05:55:51.113Z,100103.09
2023-05-02T05:58:17.938Z,100100.72
2023-05-02T06:00:44.488Z,100105.91
2023-05-02T06:03:11.475Z,100100.97
2023-05-02T06:05:38.173Z,100098.56
2023-05-02T06:08:04.877Z,100085.88
2023-05-02T06:10:32.167Z,100085.38
2023-05-02T06:12:59.305Z,100095.91
2023-05-02T06:15:25.827Z,100110.66
2023-05-02T06:17:52.769Z,100124.53
2023-05-02T06:20:19.428Z,100124.66
2023-05-02T06:22:46.197Z,100133.19
2023-05-02T06:25:12.754Z,100131.25
2023-05-02T06:27:39.268Z,100122.72
2023-05-02T06:30:06.615Z,100134.00
2023-05-02T06:32:33.234Z,100124.63
2023-05-02T06:35:00.234Z,100113.63
2023-05-02T06:37:26.889Z,100124.38
2023-05-02T06:39:53.497Z,100135.22
2023-05-02T06:42:20.050Z,100118.41
2023-05-02T06:44:46.584Z,100121.66
2023-05-02T06:47:13.355Z,100127.09
2023-05-02T06:49:39.970Z,100100.94
2023-05-02T06:52:06.492Z,100074.00
2023-05-02T06:54:33.054Z,100076.09
2023-05-02T06:57:00.425Z,100081.84
2023-05-02T06:59:26.909Z,100104.53
2023-05-02T07:01:53.498Z,100130.19
2023-05-02T07:04:20.057Z,100136.75
2023-05-02T07:06:47.138Z,100124.63
2023-05-02T07:09:13.705Z,100139.94
2023-05-02T07:11:40.277Z,100146.19
2023-05-02T07:14:06.825Z,100166.91
2023-05-02T07:16:33.399Z,100158.72
2023-05-02T07:19:00.229Z,100159.16
2023-05-02T07:21:26.798Z,100163.47
2023-05-02T07:23:55.549Z,100170.50
2023-05-02T07:26:23.472Z,100178.25
2023-05-02T07:28:50.090Z,100190.50
2023-05-02T07:31:18.820Z,100195.66
2023-05-02T07:33:45.595Z,100203.00
2023-05-02T07:36:12.163Z,100223.69
2023-05-02T07:38:38.733Z,100253.94
2023-05-02T07:41:05.306Z,100271.22
2023-05-02T07:43:32.255Z,100286.84
2023-05-02T07:45:58.921Z,100303.22
2023-05-02T07:48:27.623Z,100301.63
2023-05-02T07:50:54.480Z,100310.56
2023-05-02T07:53:20.997Z,100314.91
2023-05-02T07:55:47.766Z,100307.16
2023-05-02T07:58:14.276Z,100311.59
2023-05-02T08:00:40.884Z,100315.91
2023-05-02T08:03:07.800Z,100321.28
2023-05-02T08:05:34.561Z,100319.72
2023-05-02T08:08:01.951Z,100312.84
2023-05-02T08:10:28.594Z,100318.16
2023-05-02T08:12:55.189Z,100324.38
2023-05-02T08:15:21.706Z,100327.56
2023-05-02T08:17:48.316Z,100324.00
2023-05-02T08:20:14.859Z,100313.88
2023-05-02T08:22:41.688Z,100321.78
2023-05-02T08:25:08.523Z,100320.22
2023-05-02T08:27:35.743Z,100319.44
2023-05-02T08:30:02.544Z,100316.16
2023-05-02T08:32:30.188Z,100319.25
2023-05-02T08:34:59.728Z,100330.19
2023-05-02T08:37:26.393Z,100322.47
2023-05-02T08:39:52.939Z,100323.34
2023-05-02T08:42:20.877Z,100330.28
2023-05-02T08:44:49.193Z,100327.88
2023-05-02T08:47:18.764Z,100338.47
2023-05-02T08:49:46.569Z,100344.41
2023-05-02T08:52:14.540Z,100350.53
2023-05-02T08:54:41.755Z,100347.91
2023-05-02T08:57:08.840Z,100354.94
2023-05-02T08:59:35.416Z,100349.19
2023-05-02T09:02:17.480Z,100354.34
2023-05-02T09:04:49.626Z,100345.38
2023-05-02T09:07:16.206Z,100349.47
2023-05-02T09:09:42.801Z,100349.41
2023-05-02T09:12:10.272Z,100343.38
2023-05-02T09:14:36.882Z,100345.19
2023-05-02T09:17:03.850Z,100346.16
2023-05-02T09:19:31.083Z,100345.56
2023-05-02T09:22:01.719Z,100336.31
2023-05-02T09:24:29.614Z,100338.09
2023-05-02T09:27:04.208Z,100339.00
2023-05-02T09:29:36.444Z,100343.59
2023-05-02T09:32:04.368Z,100345.94
2023-05-02T09:34:31.526Z,100340.00
2023-05-02T09:36:58.409Z,100335.19
2023-05-02T09:39:26.798Z,100341.53
2023-05-02T09:41:53.520Z,100330.84
2023-05-02T09:44:22.157Z,100337.91
2023-05-02T09:46:49.622Z,100326.88
2023-05-02T09:49:19.682Z,100333.97
2023-05-02T09:51:47.628Z,100330.56
2023-05-02T09:54:15.143Z,100336.41
2023-05-02T09:56:56.816Z,100328.81
2023-05-02T09:59:24.753Z,100323.75
2023-05-02T10:02:12.030Z,100317.06
2023-05-02T10:04:39.418Z,100313.63
2023-05-02T10:07:10.374Z,100313.56
2023-05-02T10:09:40.378Z,100310.16
2023-05-02T10:12:08.377Z,100309.00
2023-05-02T10:14:53.292Z,100314.22
2023-05-02T10:17:31.086Z,100307.97
2023-05-02T10:20:01.473Z,100307.06
2023-05-02T10:22:28.608Z,100296.81
2023-05-02T10:24:58.061Z,100297.25
2023-05-02T10:27:25.723Z,100307.44
2023-05-02T10:29:52.897Z,100297.72
2023-05-02T10:32:22.630Z,100300.16
2023-05-02T10:34:51.810Z,100291.66
2023-05-02T10:37:19.352Z,100282.19
2023-05-02T10:39:46.155Z,100276.44
2023-05-02T10:42:14.628Z,100288.66
2023-05-02T10:44:41.585Z,100284.44
2023-05-02T10:47:27.185Z,100281.84
2023-05-02T10:50:01.927Z,100277.53
2023-05-02T10:52:35.550Z,100280.13
2023-05-02T10:55:22.517Z,100273.22
2023-05-02T10:57:58.386Z,100275.28
2023-05-02T11:00:29.531Z,100269.19
2023-05-02T11:02:56.769Z,100263.25
2023-05-02T11:05:24.657Z,100266.81
2023-05-02T11:08:19.345Z,100255.59
2023-05-02T11:10:47.315Z,100257.25
2023-05-02T11:13:13.932Z,100252.09
2023-05-02T11:15:40.468Z,100247.69
2023-05-02T11:18:12.714Z,100247.06
2023-05-02T11:20:43.649Z,100237.50
2023-05-02T11:23:16.846Z,100242.72
2023-05-02T11:25:45.889Z,100233.03
2023-05-02T11:28:37.193Z,100235.59
2023-05-02T11:31:08.628Z,100220.25
2023-05-02T11:33:35.132Z,100223.84
2023-05-02T11:36:01.801Z,100220.44
2023-05-02T11:38:36.748Z,100218.84
2023-05-02T11:41:04.368Z,100212.75
2023-05-02T11:43:32.140Z,100213.69
2023-05-02T11:46:00.761Z,100223.03
2023-05-02T11:48:27.831Z,100218.59
2023-05-02T11:50:58.413Z,100216.13
2023-05-02T11:53:28.892Z,100214.56
2023-05-02T11:55:57.468Z,100218.94
2023-05-02T11:58:26.755Z,100226.56
2023-05-02T12:00:53.939Z,100210.94
2023-05-02T12:03:22.621Z,100206.63
2023-05-02T12:05:50.109Z,100205.75
2023-05-02T12:08:27.932Z,100199.00
2023-05-02T12:10:56.060Z,100192.13
2023-05-02T12:13:24.944Z,100202.56
2023-05-02T12:15:53.285Z,100199.06
2023-05-02T12:18:25.181Z,100199.97
2023-05-02T12:20:52.847Z,100197.34
2023-05-02T12:23:24.567Z,100197.28
2023-05-02T12:25:51.055Z,100202.50
2023-05-02T12:28:20.031Z,100200.81
2023-05-02T12:30:51.328Z,100199.06
2023-05-02T12:47:45.119Z,100179.16
2023-05-02T12:50:11.819Z,100188.75
2023-05-02T12:52:49.777Z,100189.56
2023-05-02T12:55:21.345Z,100185.28
2023-05-02T12:57:48.438Z,100187.84
2023-05-02T13:00:18.329Z,100178.31
2023-05-02T13:02:44.903Z,100174.00
2023-05-02T13:05:15.648Z,100181.78
2023-05-02T13:07:42.210Z,100186.13
2023-05-02T13:10:09.606Z,100183.50
2023-05-02T13:12:38.292Z,100172.28
2023-05-02T13:15:06.609Z,100180.06
2023-05-02T13:17:34.188Z,100172.28
2023-05-02T13:20:02.420Z,100164.47
2023-05-02T13:22:29.438Z,100168.81
2023-05-02T13:24:56.034Z,100155.78
2023-05-02T13:27:26.120Z,100164.47
2023-05-02T13:29:52.714Z,100160.94
2023-05-02T13:32:19.763Z,100165.31
2023-05-02T13:34:46.400Z,100160.00
2023-05-02T13:37:13.218Z,100168.81
2023-05-02T13:39:39.919Z,100155.81
2023-05-02T13:42:06.730Z,100156.66
2023-05-02T13:44:33.491Z,100151.47
2023-05-02T13:47:00.090Z,100149.78
2023-05-02T13:49:26.978Z,100145.44
2023-05-02T13:51:53.725Z,100149.75
2023-05-02T13:54:20.890Z,100147.19
2023-05-02T13:56:47.455Z,100148.84
2023-05-02T13:59:14.322Z,100146.25
2023-05-02T14:01:41.193Z,100139.22
2023-05-02T14:04:09.002Z,100134.91
2023-05-02T14:06:36.151Z,100143.56
2023-05-02T14:09:03.878Z,100131.41
2023-05-02T14:11:30.768Z,100127.16
2023-05-02T14:13:58.360Z,100134.94
2023-05-02T14:16:25.185Z,100124.59
2023-05-02T14:18:51.755Z,100127.03
2023-05-02T14:21:18.365Z,100117.53
2023-05-02T14:23:44.902Z,100115.06
2023-05-02T14:26:11.508Z,100116.75
2023-05-02T14:28:39.054Z,100120.25
2023-05-02T14:31:07.866Z,100108.94
2023-05-02T14:33:34.549Z,100118.38
2023-05-02T14:36:01.401Z,100116.63
2023-05-02T14:38:27.930Z,100115.88
2023-05-02T14:40:55.134Z,100113.28
2023-05-02T14:43:21.740Z,100111.44
2023-05-02T14:45:48.330Z,100115.78
2023-05-02T14:48:17.038Z,100100.97
2023-05-02T14:50:44.196Z,100101.88
2023-05-02T14:53:11.876Z,100099.28
2023-05-02T14:55:39.983Z,100087.13
2023-05-02T14:58:08.993Z,100095.63
2023-05-02T15:00:37.944Z,100089.53
2023-05-02T15:03:07.670Z,100087.09
2023-05-02T15:05:36.713Z,100084.25
2023-05-02T15:08:03.272Z,100080.06
2023-05-02T15:10:29.762Z,100083.25
2023-05-02T15:12:56.500Z,100079.03
2023-05-02T15:15:25.141Z,100079.72
2023-05-02T15:17:52.907Z,100078.72
2023-05-02T15:20:19.934Z,100065.38
2023-05-02T15:22:46.506Z,100060.56
2023-05-02T15:25:13.035Z,100066.69
2023-05-02T15:27:39.972Z,100058.38
2023-05-02T15:30:07.420Z,100064.25
2023-05-02T15:32:34.061Z,100058.28
2023-05-02T15:35:00.831Z,100055.34
2023-05-02T15:37:27.498Z,100056.72
2023-05-02T15:39:54.085Z,100051.97
2023-05-02T15:42:20.724Z,100063.53
2023-05-02T15:44:47.235Z,100064.81
2023-05-02T15:47:13.828Z,100058.09
2023-05-02T15:49:41.155Z,100057.03
2023-05-02T15:52:07.751Z,100059.34
2023-05-02T15:54:34.521Z,100052.44
2023-05-02T15:57:02.539Z,100039.88
2023-05-02T15:59:29.289Z,100043.44
2023-05-02T16:01:56.254Z,100041.69
2023-05-02T16:04:22.957Z,100042.88
2023-05-02T16:06:49.838Z,100042.69
2023-05-02T16:09:16.558Z,100044.84
2023-05-02T16:11:44.444Z,100037.47
2023-05-02T16:14:11.319Z,100039.19
2023-05-02T16:16:37.985Z,100035.09
2023-05-02T16:19:04.703Z,100030.66
2023-05-02T16:21:31.720Z,100034.31
2023-05-02T16:23:58.350Z,100032.03
2023-05-02T16:26:24.841Z,100034.00
2023-05-02T16:28:51.752Z,100029.75
2023-05-02T16:31:18.345Z,100033.06
2023-05-02T16:33:44.949Z,100028.16
2023-05-02T16:36:11.618Z,100022.84
2023-05-02T16:38:38.186Z,100023.44
2023-05-02T16:41:07.098Z,100027.81
2023-05-02T16:43:33.862Z,100031.88
2023-05-02T16:46:05.162Z,100036.69
2023-05-02T16:48:32.277Z,100034.53
2023-05-02T16:51:01.076Z,100029.91
2023-05-02T16:53:30.551Z,100027.59
2023-05-02T16:55:57.279Z,100023.78
2023-05-02T16:58:25.048Z,100031.63
2023-05-02T17:00:52.008Z,100028.94
2023-05-02T17:03:18.819Z,100022.38
2023-05-02T17:05:45.745Z,100028.00
2023-05-02T17:08:12.350Z,100023.94
2023-05-02T17:10:39.050Z,100021.25
2023-05-02T17:13:06.668Z,100019.94
2023-05-02T17:15:38.497Z,100024.88
2023-05-02T17:18:05.322Z,100018.66
2023-05-02T17:20:32.296Z,100020.78
2023-05-02T17:23:00.641Z,100015.22
2023-05-02T17:25:27.218Z,100011.94
2023-05-02T17:27:53.896Z,100004.28
2023-05-02T17:30:20.528Z,100003.84
2023-05-02T17:32:48.038Z,100000.66
2023-05-02T17:35:14.716Z,99997.09
2023-05-02T17:37:41.393Z,100004.81
2023-05-02T17:40:08.565Z,100005.22
2023-05-02T17:42:35.329Z,100005.06
2023-05-02T17:45:02.553Z,99997.50
2023-05-02T17:47:29.260Z,100003.13
2023-05-02T17:49:55.986Z,99999.16
2023-05-02T17:52:22.697Z,99992.81
2023-05-02T17:54:52.200Z,99992.03
2023-05-02T17:57:19.712Z,99985.13
2023-05-02T17:59:46.353Z,99977.72
2023-05-02T18:02:12.905Z,99985.06
2023-05-02T18:04:39.413Z,99979.47
2023-05-02T18:07:06.350Z,99984.91
2023-05-02T18:09:33.001Z,99979.88
2023-05-02T18:12:04.316Z,99980.00
2023-05-02T18:14:30.994Z,99983.44
2023-05-02T18:16:57.730Z,99982.88
2023-05-02T18:19:24.372Z,99982.19
2023-05-02T18:21:51.111Z,99974.44
2023-05-02T18:24:17.716Z,99980.75
2023-05-02T18:26:44.364Z,99981.66
2023-05-02T18:29:10.836Z,99995.63
2023-05-02T18:31:40.309Z,99990.59
2023-05-02T18:34:07.063Z,99994.09
2023-05-02T18:36:33.691Z,99988.84
2023-05-02T18:39:00.420Z,99989.00
2023-05-02T18:41:27.009Z,99993.50
2023-05-02T18:43:54.606Z,99998.78
2023-05-02T18:46:21.913Z,99986.75
2023-05-02T18:48:48.999Z,99998.19
2023-05-02T18:51:15.882Z,99991.31
2023-05-02T18:53:42.400Z,99996.63
2023-05-02T18:56:13.825Z,99993.19
2023-05-02T18:58:41.593Z,99995.00
2023-05-02T19:01:15.255Z,100002.91
2023-05-02T19:03:45.630Z,99994.31
2023-05-02T19:06:13.290Z,100001.28
2023-05-02T19:08:42.986Z,100003.06
2023-05-02T19:11:09.750Z,99992.75
2023-05-02T19:13:36.331Z,99988.47
2023-05-02T19:16:03.126Z,99982.44
2023-05-02T19:18:29.707Z,99993.75
2023-05-02T19:20:57.270Z,100005.91
2023-05-02T19:23:24.549Z,99999.00
2023-05-02T19:25:51.147Z,100003.31
2023-05-02T19:28:17.755Z,100001.63
2023-05-02T19:30:44.739Z,100006.84
2023-05-02T19:33:11.770Z,100013.78
2023-05-02T19:35:38.754Z,100025.06
2023-05-02T19:38:05.359Z,100017.28
2023-05-02T19:40:31.917Z,100021.59
2023-05-02T19:42:58.414Z,100026.78
2023-05-02T19:45:25.559Z,100032.00
2023-05-02T19:47:52.659Z,100036.34
2023-05-02T19:50:19.339Z,100040.66
2023-05-02T19:52:45.941Z,100037.22
2023-05-02T19:55:13.181Z,100038.09
2023-05-02T19:57:40.852Z,100038.13
2023-05-02T20:00:08.328Z,100044.16
2023-05-02T20:02:35.043Z,100039.81
2023-05-02T20:05:01.688Z,100045.91
2023-05-02T20:07:28.425Z,100045.88
2023-05-02T20:09:54.934Z,100041.59
2023-05-02T20:12:21.450Z,100044.19
2023-05-02T20:14:48.000Z,100039.84
2023-05-02T20:17:14.562Z,100035.50
2023-05-02T20:19:41.063Z,100043.28
2023-05-02T20:22:07.843Z,100036.34
2023-05-02T20:24:34.344Z,100036.34
2023-05-02T20:27:01.314Z,100030.25
2023-05-02T20:29:28.456Z,100033.72
2023-05-02T20:31:56.541Z,100036.31
2023-05-02T20:34:23.551Z,100038.03
2023-05-02T20:36:50.224Z,100038.03
2023-05-02T20:39:20.391Z,100034.56
2023-05-02T20:41:49.607Z,100038.03
2023-05-02T20:44:22.420Z,100037.19
2023-05-02T20:46:49.181Z,100041.50
2023-05-02T20:49:15.702Z,100041.47
2023-05-02T20:51:42.256Z,100036.28
2023-05-02T20:54:08.798Z,100037.97
2023-05-02T20:56:35.466Z,100042.28
2023-05-02T20:59:01.965Z,100046.59
2023-05-02T21:01:28.819Z,100033.63
2023-05-02T21:03:57.189Z,100036.19
2023-05-02T21:06:24.110Z,100039.66
2023-05-02T21:08:51.098Z,100032.72
2023-05-02T21:11:17.655Z,100034.41
2023-05-02T21:13:44.203Z,100035.28
2023-05-02T21:16:17.995Z,100036.97
2023-05-02T21:18:45.281Z,100032.63
2023-05-02T21:21:11.932Z,100035.22
2023-05-02T21:23:38.931Z,100030.88
2023-05-02T21:26:06.142Z,100027.34
2023-05-02T21:28:32.637Z,100024.72
2023-05-02T21:31:01.699Z,100027.31
2023-05-02T21:33:28.249Z,100024.72
2023-05-02T21:35:58.392Z,100025.59
2023-05-02T21:38:26.036Z,100021.22
2023-05-02T21:40:53.296Z,100018.63
2023-05-02T21:43:19.999Z,100016.03
2023-05-02T21:45:47.919Z,100023.78
2023-05-02T21:48:15.259Z,100022.91
2023-05-02T21:50:43.253Z,100025.53
2023-05-02T21:53:10.708Z,100022.91
2023-05-02T21:55:39.165Z,100022.84
2023-05-02T21:58:07.398Z,100015.06
2023-05-02T22:00:34.038Z,100007.31
2023-05-02T22:03:07.785Z,100011.59
2023-05-02T22:05:41.870Z,100012.44
2023-05-02T22:08:10.057Z,100014.16
2023-05-02T22:10:41.862Z,100010.66
2023-05-02T22:13:12.209Z,100006.31
2023-05-02T22:15:47.786Z,100005.41
2023-05-02T22:18:16.804Z,100013.16
2023-05-02T22:20:45.060Z,100011.44
2023-05-02T22:23:12.306Z,99996.72
2023-05-02T22:25:44.337Z,100002.78
2023-05-02T22:28:11.476Z,100008.78
2023-05-02T22:30:39.157Z,99997.53
2023-05-02T22:33:07.410Z,100001.81
2023-05-02T22:35:34.402Z,100008.72
2023-05-02T22:38:02.198Z,100004.41
2023-05-02T22:40:31.452Z,100030.25
2023-05-02T22:42:58.938Z,100028.06
2023-05-02T22:45:26.951Z,100030.41
2023-05-02T22:47:53.778Z,100032.75
2023-05-02T22:50:21.463Z,100022.41
2023-05-02T22:52:49.002Z,100021.59
2023-05-02T22:55:15.724Z,100021.50
2023-05-02T22:57:42.800Z,100020.66
2023-05-02T23:00:10.646Z,100013.72
2023-05-02T23:02:37.638Z,100013.00
2023-05-02T23:05:04.650Z,100017.34
2023-05-02T23:07:31.200Z,100014.66
2023-05-02T23:09:57.731Z,100009.56
2023-05-02T23:12:24.321Z,100011.25
2023-05-02T23:14:50.901Z,100012.97
2023-05-02T23:17:17.531Z,100015.56
2023-05-02T23:19:44.105Z,100000.97
2023-05-02T23:22:10.670Z,100003.63
2023-05-02T23:24:37.235Z,100005.22
2023-05-02T23:27:03.836Z,99997.53
2023-05-02T23:29:30.396Z,99994.00
2023-05-02T23:31:57.066Z,99996.63
2023-05-02T23:34:23.839Z,100006.00
2023-05-02T23:36:51.849Z,100006.91
2023-05-02T23:39:18.713Z,100004.38
2023-05-02T23:41:45.319Z,100009.47
2023-05-02T23:44:11.876Z,100008.59
2023-05-02T23:46:39.077Z,100009.41
2023-05-02T23:49:05.676Z,100006.81
2023-05-02T23:51:32.287Z,100003.34
2023-05-02T23:53:58.928Z,100004.91
2023-05-02T23:56:26.122Z,100008.19
2023-05-02T23:58:52.686Z,100006.56
